sensor_id;sensor_type;location;lat;lon;timestamp;pressure;altitude;pressure_sealevel;temperature;humidity
10587;BME280;5341;47.606;7.576;2023-02-16T00:01:37;99963.38;;;8.22;56.04
10587;BME280;5341;47.606;7.576;2023-02-16T00:04:14;99963.66;;;8.19;55.98
10587;BME280;5341;47.606;7.576;2023-02-16T00:06:44;99949.63;;;8.17;55.91
10587;BME280;5341;47.606;7.576;2023-02-16T00:09:13;99944.59;;;8.14;56.00
10587;BME280;5341;47.606;7.576;2023-02-16T00:11:40;99951.00;;;8.11;56.16
10587;BME280;5341;47.606;7.576;2023-02-16T00:14:26;99954.81;;;8.09;56.17
10587;BME280;5341;47.606;7.576;2023-02-16T00:16:55;99958.44;;;8.08;56.29
10587;BME280;5341;47.606;7.576;2023-02-16T00:19:25;99951.44;;;8.07;56.02
10587;BME280;5341;47.606;7.576;2023-02-16T00:21:57;99956.91;;;8.05;56.36
10587;BME280;5341;47.606;7.576;2023-02-16T00:24:27;99957.88;;;8.04;56.32
10587;BME280;5341;47.606;7.576;2023-02-16T00:26:57;99964.19;;;8.03;56.28
10587;BME280;5341;47.606;7.576;2023-02-16T00:29:27;99959.84;;;8.02;56.27
10587;BME280;5341;47.606;7.576;2023-02-16T00:31:57;99961.69;;;8.02;56.18
10587;BME280;5341;47.606;7.576;2023-02-16T00:34:28;99960.00;;;8.01;56.39
10587;BME280;5341;47.606;7.576;2023-02-16T00:36:59;99960.09;;;7.99;56.10
10587;BME280;5341;47.606;7.576;2023-02-16T00:39:27;99953.09;;;7.98;56.21
10587;BME280;5341;47.606;7.576;2023-02-16T00:41:57;99947.91;;;7.97;56.11
10587;BME280;5341;47.606;7.576;2023-02-16T00:44:30;99964.03;;;7.95;56.24
10587;BME280;5341;47.606;7.576;2023-02-16T00:47:02;99968.66;;;7.93;56.23
10587;BME280;5341;47.606;7.576;2023-02-16T00:49:30;99956.44;;;7.90;56.30
10587;BME280;5341;47.606;7.576;2023-02-16T00:52:23;99965.44;;;7.89;56.16
10587;BME280;5341;47.606;7.576;2023-02-16T00:54:54;99969.19;;;7.87;56.29
10587;BME280;5341;47.606;7.576;2023-02-16T00:57:23;99962.31;;;7.84;56.50
10587;BME280;5341;47.606;7.576;2023-02-16T00:59:57;99961.59;;;7.82;56.34
10587;BME280;5341;47.606;7.576;2023-02-16T01:02:28;99960.91;;;7.80;56.06
10587;BME280;5341;47.606;7.576;2023-02-16T01:04:56;99965.53;;;7.78;56.10
10587;BME280;5341;47.606;7.576;2023-02-16T01:07:27;99960.19;;;7.78;56.04
10587;BME280;5341;47.606;7.576;2023-02-16T01:10:11;99951.63;;;7.75;56.12
10587;BME280;5341;47.606;7.576;2023-02-16T01:12:56;99946.44;;;7.73;56.09
10587;BME280;5341;47.606;7.576;2023-02-16T01:15:26;99958.06;;;7.72;56.25
10587;BME280;5341;47.606;7.576;2023-02-16T01:17:54;99957.22;;;7.72;56.18
10587;BME280;5341;47.606;7.576;2023-02-16T01:20:24;99953.72;;;7.71;56.07
10587;BME280;5341;47.606;7.576;2023-02-16T01:22:53;99957.50;;;7.69;56.09
10587;BME280;5341;47.606;7.576;2023-02-16T01:25:22;99958.47;;;7.68;56.12
10587;BME280;5341;47.606;7.576;2023-02-16T01:27:52;99959.59;;;7.65;55.92
10587;BME280;5341;47.606;7.576;2023-02-16T01:30:23;99948.22;;;7.63;56.25
10587;BME280;5341;47.606;7.576;2023-02-16T01:32:52;99950.16;;;7.61;56.34
10587;BME280;5341;47.606;7.576;2023-02-16T01:35:22;99953.81;;;7.60;56.20
10587;BME280;5341;47.606;7.576;2023-02-16T01:37:53;99960.09;;;7.59;56.21
10587;BME280;5341;47.606;7.576;2023-02-16T01:40:27;99951.41;;;7.57;56.31
10587;BME280;5341;47.606;7.576;2023-02-16T01:43:05;99954.22;;;7.55;56.06
10587;BME280;5341;47.606;7.576;2023-02-16T01:45:40;99955.19;;;7.54;56.00
10587;BME280;5341;47.606;7.576;2023-02-16T01:48:19;99951.84;;;7.52;55.94
10587;BME280;5341;47.606;7.576;2023-02-16T01:50:55;99938.78;;;7.49;56.21
10587;BME280;5341;47.606;7.576;2023-02-16T01:53:34;99948.56;;;7.49;55.79
10587;BME280;5341;47.606;7.576;2023-02-16T01:58:47;99936.38;;;7.46;56.02
10587;BME280;5341;47.606;7.576;2023-02-16T02:01:40;99936.53;;;7.45;56.14
10587;BME280;5341;47.606;7.576;2023-02-16T02:04:28;99943.81;;;7.43;56.27
10587;BME280;5341;47.606;7.576;2023-02-16T02:07:18;99935.94;;;7.41;56.35
10587;BME280;5341;47.606;7.576;2023-02-16T02:09:56;99940.56;;;7.39;56.23
10587;BME280;5341;47.606;7.576;2023-02-16T02:12:33;99943.22;;;7.39;56.21
10587;BME280;5341;47.606;7.576;2023-02-16T02:15:04;99941.50;;;7.38;56.21
10587;BME280;5341;47.606;7.576;2023-02-16T02:17:37;99939.00;;;7.37;56.23
10587;BME280;5341;47.606;7.576;2023-02-16T02:20:12;99936.47;;;7.35;56.44
10587;BME280;5341;47.606;7.576;2023-02-16T02:23:21;99942.06;;;7.32;56.49
10587;BME280;5341;47.606;7.576;2023-02-16T02:29:26;99939.69;;;7.29;56.07
10587;BME280;5341;47.606;7.576;2023-02-16T02:32:05;99931.81;;;7.27;56.25
10587;BME280;5341;47.606;7.576;2023-02-16T02:34:52;99939.06;;;7.25;56.13
10587;BME280;5341;47.606;7.576;2023-02-16T02:37:42;99918.06;;;7.22;56.15
10587;BME280;5341;47.606;7.576;2023-02-16T02:40:25;99913.84;;;7.20;55.87
10587;BME280;5341;47.606;7.576;2023-02-16T02:43:13;99921.00;;;7.19;56.34
10587;BME280;5341;47.606;7.576;2023-02-16T02:45:50;99922.94;;;7.17;55.84
10587;BME280;5341;47.606;7.576;2023-02-16T02:48:20;99925.75;;;7.16;56.12
10587;BME280;5341;47.606;7.576;2023-02-16T02:50:57;99928.41;;;7.16;56.29
10587;BME280;5341;47.606;7.576;2023-02-16T02:53:50;99921.50;;;7.13;56.22
10587;BME280;5341;47.606;7.576;2023-02-16T02:56:46;99924.31;;;7.12;56.28
10587;BME280;5341;47.606;7.576;2023-02-16T02:59:34;99921.91;;;7.09;56.17
10587;BME280;5341;47.606;7.576;2023-02-16T03:02:25;99929.06;;;7.08;56.28
10587;BME280;5341;47.606;7.576;2023-02-16T03:04:58;99927.50;;;7.05;56.28
10587;BME280;5341;47.606;7.576;2023-02-16T03:07:28;99924.00;;;7.05;56.16
10587;BME280;5341;47.606;7.576;2023-02-16T03:10:12;99927.63;;;7.04;56.19
10587;BME280;5341;47.606;7.576;2023-02-16T03:13:07;99925.97;;;7.03;56.11
10587;BME280;5341;47.606;7.576;2023-02-16T03:15:43;99926.06;;;7.01;56.22
10587;BME280;5341;47.606;7.576;2023-02-16T03:18:15;99916.41;;;7.00;56.30
10587;BME280;5341;47.606;7.576;2023-02-16T03:21:01;99919.19;;;6.99;56.32
10587;BME280;5341;47.606;7.576;2023-02-16T03:23:48;99920.16;;;6.98;56.44
10587;BME280;5341;47.606;7.576;2023-02-16T03:26:35;99920.31;;;6.96;56.14
10587;BME280;5341;47.606;7.576;2023-02-16T03:29:21;99921.28;;;6.95;56.13
10587;BME280;5341;47.606;7.576;2023-02-16T03:31:51;99922.25;;;6.94;56.44
10587;BME280;5341;47.606;7.576;2023-02-16T03:34:21;99920.56;;;6.93;55.86
10587;BME280;5341;47.606;7.576;2023-02-16T03:36:51;99929.53;;;6.92;56.10
10587;BME280;5341;47.606;7.576;2023-02-16T03:39:23;99932.31;;;6.91;56.44
10587;BME280;5341;47.606;7.576;2023-02-16T03:41:52;99937.63;;;6.91;56.44
10587;BME280;5341;47.606;7.576;2023-02-16T03:44:20;99938.72;;;6.88;56.19
10587;BME280;5341;47.606;7.576;2023-02-16T03:46:49;99933.53;;;6.87;56.39
10587;BME280;5341;47.606;7.576;2023-02-16T03:49:18;99940.78;;;6.85;56.05
10587;BME280;5341;47.606;7.576;2023-02-16T03:51:47;99938.28;;;6.83;56.06
10587;BME280;5341;47.606;7.576;2023-02-16T03:54:15;99940.94;;;6.83;55.98
10587;BME280;5341;47.606;7.576;2023-02-16T03:56:42;99932.13;;;6.83;56.33
10587;BME280;5341;47.606;7.576;2023-02-16T03:59:09;99936.59;;;6.82;56.22
10587;BME280;5341;47.606;7.576;2023-02-16T04:01:37;99937.69;;;6.80;56.09
10587;BME280;5341;47.606;7.576;2023-02-16T04:04:04;99935.13;;;6.78;56.08
10587;BME280;5341;47.606;7.576;2023-02-16T04:06:31;99940.59;;;6.76;56.21
10587;BME280;5341;47.606;7.576;2023-02-16T04:09:01;99940.59;;;6.76;56.36
10587;BME280;5341;47.606;7.576;2023-02-16T04:11:29;99925.63;;;6.75;56.38
10587;BME280;5341;47.606;7.576;2023-02-16T04:14:13;99931.06;;;6.74;56.01
10587;BME280;5341;47.606;7.576;2023-02-16T04:16:41;99932.16;;;6.71;56.16
10587;BME280;5341;47.606;7.576;2023-02-16T04:19:08;99934.13;;;6.69;56.15
10587;BME280;5341;47.606;7.576;2023-02-16T04:21:35;99928.94;;;6.68;56.16
10587;BME280;5341;47.606;7.576;2023-02-16T04:24:05;99932.44;;;6.68;56.38
10587;BME280;5341;47.606;7.576;2023-02-16T04:26:33;99943.19;;;6.67;56.32
10587;BME280;5341;47.606;7.576;2023-02-16T04:29:00;99937.03;;;6.66;56.11
10587;BME280;5341;47.606;7.576;2023-02-16T04:31:27;99942.47;;;6.65;56.57
10587;BME280;5341;47.606;7.576;2023-02-16T04:33:55;99942.59;;;6.63;56.17
10587;BME280;5341;47.606;7.576;2023-02-16T04:36:22;99947.06;;;6.63;56.15
10587;BME280;5341;47.606;7.576;2023-02-16T04:38:50;99950.69;;;6.62;56.05
10587;BME280;5341;47.606;7.576;2023-02-16T04:41:18;99953.50;;;6.60;56.10
10587;BME280;5341;47.606;7.576;2023-02-16T04:43:46;99953.63;;;6.59;56.51
10587;BME280;5341;47.606;7.576;2023-02-16T04:46:13;99955.56;;;6.57;55.98
10587;BME280;5341;47.606;7.576;2023-02-16T04:48:41;99952.19;;;6.55;56.38
10587;BME280;5341;47.606;7.576;2023-02-16T04:51:08;99952.19;;;6.55;56.22
10587;BME280;5341;47.606;7.576;2023-02-16T04:53:35;99945.28;;;6.52;55.81
10587;BME280;5341;47.606;7.576;2023-02-16T04:56:03;99952.44;;;6.52;56.22
10587;BME280;5341;47.606;7.576;2023-02-16T04:58:32;99959.56;;;6.51;56.17
10587;BME280;5341;47.606;7.576;2023-02-16T05:01:00;99954.38;;;6.50;56.19
10587;BME280;5341;47.606;7.576;2023-02-16T05:03:27;99970.44;;;6.48;56.46
10587;BME280;5341;47.606;7.576;2023-02-16T05:05:54;99955.47;;;6.47;56.35
10587;BME280;5341;47.606;7.576;2023-02-16T05:08:22;99958.25;;;6.45;55.99
10587;BME280;5341;47.606;7.576;2023-02-16T05:10:49;99951.41;;;6.43;56.12
10587;BME280;5341;47.606;7.576;2023-02-16T05:13:38;99954.06;;;6.43;55.91
10587;BME280;5341;47.606;7.576;2023-02-16T05:16:23;99957.91;;;6.39;56.25
10587;BME280;5341;47.606;7.576;2023-02-16T05:18:51;99950.91;;;6.38;55.80
10587;BME280;5341;47.606;7.576;2023-02-16T05:21:18;99954.53;;;6.37;55.69
10587;BME280;5341;47.606;7.576;2023-02-16T05:23:58;99959.28;;;6.33;56.14
10587;BME280;5341;47.606;7.576;2023-02-16T05:26:26;99947.09;;;6.31;56.00
10587;BME280;5341;47.606;7.576;2023-02-16T05:28:55;99954.31;;;6.29;55.95
10587;BME280;5341;47.606;7.576;2023-02-16T05:31:24;99953.88;;;6.24;55.93
10587;BME280;5341;47.606;7.576;2023-02-16T05:33:52;99955.69;;;6.23;56.51
10587;BME280;5341;47.606;7.576;2023-02-16T05:36:20;99949.38;;;6.24;56.39
10587;BME280;5341;47.606;7.576;2023-02-16T05:38:47;99956.66;;;6.22;56.35
10587;BME280;5341;47.606;7.576;2023-02-16T05:41:15;99947.72;;;6.23;56.26
10587;BME280;5341;47.606;7.576;2023-02-16T05:43:50;99945.06;;;6.23;56.05
10587;BME280;5341;47.606;7.576;2023-02-16T05:46:19;99949.53;;;6.23;55.97
10587;BME280;5341;47.606;7.576;2023-02-16T05:48:47;99955.69;;;6.23;56.20
10587;BME280;5341;47.606;7.576;2023-02-16T05:51:15;99954.69;;;6.24;56.29
10587;BME280;5341;47.606;7.576;2023-02-16T05:53:42;99965.47;;;6.23;55.94
10587;BME280;5341;47.606;7.576;2023-02-16T05:56:10;99970.78;;;6.23;56.48
10587;BME280;5341;47.606;7.576;2023-02-16T05:58:38;99958.47;;;6.22;56.59
10587;BME280;5341;47.606;7.576;2023-02-16T06:01:05;99967.41;;;6.21;56.49
10587;BME280;5341;47.606;7.576;2023-02-16T06:03:34;99970.19;;;6.19;56.42
10587;BME280;5341;47.606;7.576;2023-02-16T06:06:03;99968.50;;;6.18;56.24
10587;BME280;5341;47.606;7.576;2023-02-16T06:08:31;99968.50;;;6.18;56.51
10587;BME280;5341;47.606;7.576;2023-02-16T06:10:59;99969.44;;;6.17;56.54
10587;BME280;5341;47.606;7.576;2023-02-16T06:13:26;99969.44;;;6.17;56.18
10587;BME280;5341;47.606;7.576;2023-02-16T06:15:55;99964.38;;;6.14;56.09
10587;BME280;5341;47.606;7.576;2023-02-16T06:18:26;99968.97;;;6.12;56.37
10587;BME280;5341;47.606;7.576;2023-02-16T06:20:56;99977.91;;;6.11;56.06
10587;BME280;5341;47.606;7.576;2023-02-16T06:23:24;99961.97;;;6.11;56.57
10587;BME280;5341;47.606;7.576;2023-02-16T06:25:51;99970.22;;;6.08;56.29
10587;BME280;5341;47.606;7.576;2023-02-16T06:28:19;99978.31;;;6.06;56.03
10587;BME280;5341;47.606;7.576;2023-02-16T06:30:46;99974.81;;;6.06;56.33
10587;BME280;5341;47.606;7.576;2023-02-16T06:33:14;99975.75;;;6.05;56.08
10587;BME280;5341;47.606;7.576;2023-02-16T06:35:41;99983.84;;;6.03;56.03
10587;BME280;5341;47.606;7.576;2023-02-16T06:38:10;99982.28;;;6.01;56.60
10587;BME280;5341;47.606;7.576;2023-02-16T06:40:37;99984.81;;;6.02;56.06
10587;BME280;5341;47.606;7.576;2023-02-16T06:43:05;99980.34;;;6.03;56.56
10587;BME280;5341;47.606;7.576;2023-02-16T06:45:32;99983.84;;;6.03;56.29
10587;BME280;5341;47.606;7.576;2023-02-16T06:48:00;99990.00;;;6.04;56.46
10587;BME280;5341;47.606;7.576;2023-02-16T06:50:27;99989.16;;;6.03;56.36
10587;BME280;5341;47.606;7.576;2023-02-16T06:52:55;99989.16;;;6.03;56.45
10587;BME280;5341;47.606;7.576;2023-02-16T06:55:24;99984.69;;;6.04;56.33
10587;BME280;5341;47.606;7.576;2023-02-16T06:57:51;99988.19;;;6.04;56.17
10587;BME280;5341;47.606;7.576;2023-02-16T07:00:19;99993.50;;;6.04;56.30
10587;BME280;5341;47.606;7.576;2023-02-16T07:02:47;99986.50;;;6.03;56.11
10587;BME280;5341;47.606;7.576;2023-02-16T07:05:14;99990.97;;;6.03;56.19
10587;BME280;5341;47.606;7.576;2023-02-16T07:07:42;99990.97;;;6.03;56.50
10587;BME280;5341;47.606;7.576;2023-02-16T07:10:10;100002.56;;;6.02;56.04
10587;BME280;5341;47.606;7.576;2023-02-16T07:12:39;99999.91;;;6.02;56.09
10587;BME280;5341;47.606;7.576;2023-02-16T07:15:07;100000.03;;;6.00;56.50
10587;BME280;5341;47.606;7.576;2023-02-16T07:17:34;99994.59;;;6.02;56.24
10587;BME280;5341;47.606;7.576;2023-02-16T07:20:06;100001.59;;;6.03;56.14
10587;BME280;5341;47.606;7.576;2023-02-16T07:22:35;100001.59;;;6.03;56.21
10587;BME280;5341;47.606;7.576;2023-02-16T07:25:03;100005.09;;;6.03;56.02
10587;BME280;5341;47.606;7.576;2023-02-16T07:27:31;100006.75;;;6.04;56.21
10587;BME280;5341;47.606;7.576;2023-02-16T07:30:00;99999.53;;;6.06;56.22
10587;BME280;5341;47.606;7.576;2023-02-16T07:32:29;100002.91;;;6.08;56.50
10587;BME280;5341;47.606;7.576;2023-02-16T07:34:58;100008.22;;;6.08;56.34
10587;BME280;5341;47.606;7.576;2023-02-16T07:37:25;100007.38;;;6.08;56.50
10587;BME280;5341;47.606;7.576;2023-02-16T07:39:53;100018.59;;;6.11;56.39
10587;BME280;5341;47.606;7.576;2023-02-16T07:42:20;100017.63;;;6.12;56.76
10587;BME280;5341;47.606;7.576;2023-02-16T07:44:50;100018.34;;;6.14;56.75
10587;BME280;5341;47.606;7.576;2023-02-16T07:47:20;100018.22;;;6.16;56.93
10587;BME280;5341;47.606;7.576;2023-02-16T07:49:49;100020.66;;;6.19;56.49
10587;BME280;5341;47.606;7.576;2023-02-16T07:52:16;100031.03;;;6.22;56.47
10587;BME280;5341;47.606;7.576;2023-02-16T07:54:44;100027.13;;;6.26;56.46
10587;BME280;5341;47.606;7.576;2023-02-16T07:57:13;100026.03;;;6.29;56.51
10587;BME280;5341;47.606;7.576;2023-02-16T07:59:44;100030.16;;;6.33;56.61
10587;BME280;5341;47.606;7.576;2023-02-16T08:02:15;100029.91;;;6.36;56.85
10587;BME280;5341;47.606;7.576;2023-02-16T08:04:44;100031.22;;;6.41;56.54
10587;BME280;5341;47.606;7.576;2023-02-16T08:07:11;100028.19;;;6.46;57.06
10587;BME280;5341;47.606;7.576;2023-02-16T08:09:40;100043.63;;;6.52;56.57
10587;BME280;5341;47.606;7.576;2023-02-16T08:12:08;100033.47;;;6.57;56.88
10587;BME280;5341;47.606;7.576;2023-02-16T08:14:36;100032.13;;;6.63;56.81
10587;BME280;5341;47.606;7.576;2023-02-16T08:17:05;100036.25;;;6.67;56.82
10587;BME280;5341;47.606;7.576;2023-02-16T08:19:34;100029.81;;;6.69;56.59
10587;BME280;5341;47.606;7.576;2023-02-16T08:22:06;100031.94;;;6.75;56.65
10587;BME280;5341;47.606;7.576;2023-02-16T08:24:34;100036.66;;;6.83;56.86
10587;BME280;5341;47.606;7.576;2023-02-16T08:27:03;100041.44;;;6.89;57.12
10587;BME280;5341;47.606;7.576;2023-02-16T08:29:33;100029.34;;;6.96;57.01
10587;BME280;5341;47.606;7.576;2023-02-16T08:32:01;100031.22;;;7.05;57.09
10587;BME280;5341;47.606;7.576;2023-02-16T08:34:33;100026.09;;;7.14;57.06
10587;BME280;5341;47.606;7.576;2023-02-16T08:37:00;100027.97;;;7.23;57.31
10587;BME280;5341;47.606;7.576;2023-02-16T08:39:31;100021.19;;;7.30;57.15
10587;BME280;5341;47.606;7.576;2023-02-16T08:42:00;100025.97;;;7.36;56.97
10587;BME280;5341;47.606;7.576;2023-02-16T08:44:28;100025.59;;;7.41;56.62
10587;BME280;5341;47.606;7.576;2023-02-16T08:46:58;100031.22;;;7.47;56.43
10587;BME280;5341;47.606;7.576;2023-02-16T08:49:26;100023.69;;;7.52;56.58
10587;BME280;5341;47.606;7.576;2023-02-16T08:51:55;100024.28;;;7.56;56.76
10587;BME280;5341;47.606;7.576;2023-02-16T08:54:24;100025.31;;;7.64;56.87
10587;BME280;5341;47.606;7.576;2023-02-16T08:56:55;100020.97;;;7.73;56.92
10587;BME280;5341;47.606;7.576;2023-02-16T08:59:24;100022.00;;;7.82;56.62
10587;BME280;5341;47.606;7.576;2023-02-16T09:01:51;100025.09;;;7.87;56.66
10587;BME280;5341;47.606;7.576;2023-02-16T09:04:19;100028.78;;;7.96;56.54
10587;BME280;5341;47.606;7.576;2023-02-16T09:06:46;100023.66;;;8.04;56.60
10587;BME280;5341;47.606;7.576;2023-02-16T09:09:15;100023.69;;;8.13;56.36
10587;BME280;5341;47.606;7.576;2023-02-16T09:11:43;100029.16;;;8.21;56.24
10587;BME280;5341;47.606;7.576;2023-02-16T09:14:14;100026.81;;;8.28;56.14
10587;BME280;5341;47.606;7.576;2023-02-16T09:16:44;100025.28;;;8.35;56.15
10587;BME280;5341;47.606;7.576;2023-02-16T09:19:12;100030.50;;;8.46;55.99
10587;BME280;5341;47.606;7.576;2023-02-16T09:21:42;100024.50;;;8.54;55.97
10587;BME280;5341;47.606;7.576;2023-02-16T09:24:11;100026.50;;;8.62;55.50
10587;BME280;5341;47.606;7.576;2023-02-16T09:26:40;100028.59;;;8.68;55.19
10587;BME280;5341;47.606;7.576;2023-02-16T09:29:10;100043.06;;;8.75;55.77
10587;BME280;5341;47.606;7.576;2023-02-16T09:31:41;100048.53;;;8.83;55.29
10587;BME280;5341;47.606;7.576;2023-02-16T09:34:16;100049.22;;;8.95;55.67
10587;BME280;5341;47.606;7.576;2023-02-16T09:36:44;100052.44;;;9.08;55.63
10587;BME280;5341;47.606;7.576;2023-02-16T09:39:12;100060.31;;;9.19;55.37
10587;BME280;5341;47.606;7.576;2023-02-16T09:41:56;100052.03;;;9.32;55.10
10587;BME280;5341;47.606;7.576;2023-02-16T09:44:35;100044.69;;;9.44;55.17
10587;BME280;5341;47.606;7.576;2023-02-16T09:47:19;100040.88;;;9.56;54.95
10587;BME280;5341;47.606;7.576;2023-02-16T09:49:48;100041.84;;;9.64;54.93
10587;BME280;5341;47.606;7.576;2023-02-16T09:52:22;100040.00;;;9.75;54.80
10587;BME280;5341;47.606;7.576;2023-02-16T09:54:54;100033.63;;;9.85;54.28
10587;BME280;5341;47.606;7.576;2023-02-16T09:57:36;100034.44;;;9.95;54.83
10587;BME280;5341;47.606;7.576;2023-02-16T10:00:15;100034.25;;;10.07;54.63
10587;BME280;5341;47.606;7.576;2023-02-16T10:02:54;100026.03;;;10.18;53.85
10587;BME280;5341;47.606;7.576;2023-02-16T10:05:30;100021.81;;;10.25;53.68
10587;BME280;5341;47.606;7.576;2023-02-16T10:08:04;100031.44;;;10.36;53.62
10587;BME280;5341;47.606;7.576;2023-02-16T10:10:42;100032.25;;;10.46;54.23
10587;BME280;5341;47.606;7.576;2023-02-16T10:13:22;100039.50;;;10.53;53.46
10587;BME280;5341;47.606;7.576;2023-02-16T10:15:53;100026.22;;;10.62;53.89
10587;BME280;5341;47.606;7.576;2023-02-16T10:18:28;100041.22;;;10.72;53.68
10587;BME280;5341;47.606;7.576;2023-02-16T10:21:04;100031.28;;;10.82;53.70
10587;BME280;5341;47.606;7.576;2023-02-16T10:23:44;100036.56;;;10.92;53.72
10587;BME280;5341;47.606;7.576;2023-02-16T10:26:24;100027.47;;;11.03;52.71
10587;BME280;5341;47.606;7.576;2023-02-16T10:28:56;100021.16;;;11.12;53.76
10587;BME280;5341;47.606;7.576;2023-02-16T10:31:30;100013.03;;;11.22;53.05
10587;BME280;5341;47.606;7.576;2023-02-16T10:34:16;100005.75;;;11.32;53.18
10587;BME280;5341;47.606;7.576;2023-02-16T10:37:00;100009.34;;;11.40;52.50
10587;BME280;5341;47.606;7.576;2023-02-16T10:39:34;100009.09;;;11.52;52.83
10587;BME280;5341;47.606;7.576;2023-02-16T10:42:13;100010.81;;;11.61;52.27
10587;BME280;5341;47.606;7.576;2023-02-16T10:44:47;100010.69;;;11.70;51.99
10587;BME280;5341;47.606;7.576;2023-02-16T10:47:27;100005.59;;;11.85;52.06
10587;BME280;5341;47.606;7.576;2023-02-16T10:49:57;100006.66;;;11.92;51.63
10587;BME280;5341;47.606;7.576;2023-02-16T10:52:27;100013.22;;;11.98;52.39
10587;BME280;5341;47.606;7.576;2023-02-16T10:54:56;100007.72;;;12.08;51.54
10587;BME280;5341;47.606;7.576;2023-02-16T10:57:25;100004.25;;;12.15;51.96
10587;BME280;5341;47.606;7.576;2023-02-16T10:59:54;100006.09;;;12.23;51.55
10587;BME280;5341;47.606;7.576;2023-02-16T11:02:24;100000.59;;;12.32;51.63
10587;BME280;5341;47.606;7.576;2023-02-16T11:04:54;99990.75;;;12.41;51.21
10587;BME280;5341;47.606;7.576;2023-02-16T11:07:26;99987.56;;;12.46;51.64
10587;BME280;5341;47.606;7.576;2023-02-16T11:09:56;99995.31;;;12.49;51.75
10587;BME280;5341;47.606;7.576;2023-02-16T11:12:28;99980.88;;;12.50;51.58
10587;BME280;5341;47.606;7.576;2023-02-16T11:14:59;99976.69;;;12.55;51.51
10587;BME280;5341;47.606;7.576;2023-02-16T11:17:29;99976.53;;;12.65;51.31
10587;BME280;5341;47.606;7.576;2023-02-16T11:19:58;99970.34;;;12.73;50.97
10587;BME280;5341;47.606;7.576;2023-02-16T11:22:32;99974.88;;;12.80;51.32
10587;BME280;5341;47.606;7.576;2023-02-16T11:25:21;99969.34;;;12.90;50.97
10587;BME280;5341;47.606;7.576;2023-02-16T11:27:51;99964.66;;;13.00;50.47
10587;BME280;5341;47.606;7.576;2023-02-16T11:30:27;99963.31;;;13.12;50.32
10587;BME280;5341;47.606;7.576;2023-02-16T11:32:58;99957.28;;;13.18;49.95
10587;BME280;5341;47.606;7.576;2023-02-16T11:35:26;99953.09;;;13.24;49.85
10587;BME280;5341;47.606;7.576;2023-02-16T11:37:57;99949.88;;;13.29;49.75
10587;BME280;5341;47.606;7.576;2023-02-16T11:40:28;99943.00;;;13.34;49.89
10587;BME280;5341;47.606;7.576;2023-02-16T11:42:57;99945.81;;;13.41;49.48
10587;BME280;5341;47.606;7.576;2023-02-16T11:45:27;99936.91;;;13.48;49.22
10587;BME280;5341;47.606;7.576;2023-02-16T11:47:57;99939.56;;;13.57;49.41
10587;BME280;5341;47.606;7.576;2023-02-16T11:50:27;99935.38;;;13.62;49.30
10587;BME280;5341;47.606;7.576;2023-02-16T11:53:13;99935.53;;;13.69;49.10
10587;BME280;5341;47.606;7.576;2023-02-16T11:55:42;99928.94;;;13.71;49.27
10587;BME280;5341;47.606;7.576;2023-02-16T11:58:15;99925.91;;;13.74;49.42
10587;BME280;5341;47.606;7.576;2023-02-16T12:00:52;99929.72;;;13.80;49.10
10587;BME280;5341;47.606;7.576;2023-02-16T12:03:35;99925.34;;;13.87;48.85
10587;BME280;5341;47.606;7.576;2023-02-16T12:06:23;99928.19;;;13.94;47.91
10587;BME280;5341;47.606;7.576;2023-02-16T12:09:05;99928.50;;;13.99;47.71
10587;BME280;5341;47.606;7.576;2023-02-16T12:11:44;99919.88;;;14.03;47.58
10587;BME280;5341;47.606;7.576;2023-02-16T12:14:26;99914.28;;;14.13;47.26
10587;BME280;5341;47.606;7.576;2023-02-16T12:17:06;99906.00;;;14.23;46.56
10587;BME280;5341;47.606;7.576;2023-02-16T12:19:40;99904.94;;;14.32;46.53
10587;BME280;5341;47.606;7.576;2023-02-16T12:22:21;99903.84;;;14.41;47.14
10587;BME280;5341;47.606;7.576;2023-02-16T12:25:00;99905.88;;;14.47;47.47
10587;BME280;5341;47.606;7.576;2023-02-16T12:27:37;99901.44;;;14.54;46.88
10587;BME280;5341;47.606;7.576;2023-02-16T12:30:16;99900.53;;;14.62;45.96
10587;BME280;5341;47.606;7.576;2023-02-16T12:32:58;99892.22;;;14.72;46.21
10587;BME280;5341;47.606;7.576;2023-02-16T12:35:38;99889.47;;;14.80;46.65
10587;BME280;5341;47.606;7.576;2023-02-16T12:38:18;99885.38;;;14.84;46.85
10587;BME280;5341;47.606;7.576;2023-02-16T12:40:56;99880.13;;;14.90;46.00
10587;BME280;5341;47.606;7.576;2023-02-16T12:43:33;99875.66;;;14.98;45.21
10587;BME280;5341;47.606;7.576;2023-02-16T12:46:10;99868.88;;;15.02;44.61
10587;BME280;5341;47.606;7.576;2023-02-16T12:48:43;99872.50;;;15.09;43.87
10587;BME280;5341;47.606;7.576;2023-02-16T12:51:15;99871.78;;;15.15;44.32
10587;BME280;5341;47.606;7.576;2023-02-16T12:53:49;99862.94;;;15.21;44.71
10587;BME280;5341;47.606;7.576;2023-02-16T12:56:22;99865.47;;;15.22;45.36
10587;BME280;5341;47.606;7.576;2023-02-16T12:59:07;99864.63;;;15.22;44.66
10587;BME280;5341;47.606;7.576;2023-02-16T13:01:41;99866.28;;;15.23;45.72
10587;BME280;5341;47.606;7.576;2023-02-16T13:04:17;99866.22;;;15.31;45.27
10587;BME280;5341;47.606;7.576;2023-02-16T13:06:52;99859.59;;;15.34;46.12
10587;BME280;5341;47.606;7.576;2023-02-16T13:09:36;99858.59;;;15.35;46.37
10587;BME280;5341;47.606;7.576;2023-02-16T13:12:14;99855.06;;;15.34;45.56
10587;BME280;5341;47.606;7.576;2023-02-16T13:14:55;99850.31;;;15.36;46.71
10587;BME280;5341;47.606;7.576;2023-02-16T13:17:32;99846.44;;;15.39;46.56
10587;BME280;5341;47.606;7.576;2023-02-16T13:20:01;99841.28;;;15.44;46.65
10587;BME280;5341;47.606;7.576;2023-02-16T13:22:41;99848.47;;;15.51;46.79
10587;BME280;5341;47.606;7.576;2023-02-16T13:25:32;99842.50;;;15.56;46.63
10587;BME280;5341;47.606;7.576;2023-02-16T13:28:12;99844.94;;;15.66;46.18
10587;BME280;5341;47.606;7.576;2023-02-16T13:31:05;99833.66;;;15.77;44.23
10587;BME280;5341;47.606;7.576;2023-02-16T13:34:03;99833.53;;;15.85;43.96
10587;BME280;5341;47.606;7.576;2023-02-16T13:36:42;99831.75;;;15.92;43.89
10587;BME280;5341;47.606;7.576;2023-02-16T13:39:45;99830.97;;;15.98;44.05
10587;BME280;5341;47.606;7.576;2023-02-16T13:45:22;99821.69;;;16.01;44.15
10587;BME280;5341;47.606;7.576;2023-02-16T13:47:51;99817.13;;;16.01;44.23
10587;BME280;5341;47.606;7.576;2023-02-16T13:50:28;99817.31;;;16.00;45.24
10587;BME280;5341;47.606;7.576;2023-02-16T13:53:14;99811.66;;;15.95;45.81
10587;BME280;5341;47.606;7.576;2023-02-16T13:55:42;99811.41;;;15.90;46.72